sensor_id;sensor_type;location;lat;lon;timestamp;pressure;altitude;pressure_sealevel;temperature;humidity
4586;BME280;2305;50.118;8.952;2023-02-22T00:00:58;100566.28;;;6.46;100.00
4586;BME280;2305;50.118;8.952;2023-02-22T00:03:34;100562.81;;;6.45;100.00
4586;BME280;2305;50.118;8.952;2023-02-22T00:06:04;100562.28;;;6.40;100.00
4586;BME280;2305;50.118;8.952;2023-02-22T00:08:34;100555.34;;;6.39;100.00
4586;BME280;2305;50.118;8.952;2023-02-22T00:11:04;100553.94;;;6.34;100.00
4586;BME280;2305;50.118;8.952;2023-02-22T00:13:35;100552.34;;;6.31;100.00
4586;BME280;2305;50.118;8.952;2023-02-22T00:16:03;100560.09;;;6.33;100.00
4586;BME280;2305;50.118;8.952;2023-02-22T00:18:35;100553.09;;;6.33;100.00
4586;BME280;2305;50.118;8.952;2023-02-22T00:21:04;100553.09;;;6.33;100.00
4586;BME280;2305;50.118;8.952;2023-02-22T00:23:38;100553.66;;;6.38;100.00
4586;BME280;2305;50.118;8.952;2023-02-22T00:26:06;100545.50;;;6.43;100.00
4586;BME280;2305;50.118;8.952;2023-02-22T00:28:36;100550.94;;;6.40;100.00
4586;BME280;2305;50.118;8.952;2023-02-22T00:31:05;100551.16;;;6.37;100.00
4586;BME280;2305;50.118;8.952;2023-02-22T00:33:39;100545.34;;;6.32;100.00
4586;BME280;2305;50.118;8.952;2023-02-22T00:36:09;100544.59;;;6.30;100.00
4586;BME280;2305;50.118;8.952;2023-02-22T00:38:38;100543.84;;;6.28;100.00
4586;BME280;2305;50.118;8.952;2023-02-22T00:41:07;100530.94;;;6.25;100.00
4586;BME280;2305;50.118;8.952;2023-02-22T00:43:37;100533.66;;;6.23;100.00
4586;BME280;2305;50.118;8.952;2023-02-22T00:46:05;100528.69;;;6.19;100.00
4586;BME280;2305;50.118;8.952;2023-02-22T00:48:34;100528.91;;;6.16;100.00
4586;BME280;2305;50.118;8.952;2023-02-22T00:51:03;100532.44;;;6.15;100.00
4586;BME280;2305;50.118;8.952;2023-02-22T00:53:31;100526.28;;;6.16;100.00
4586;BME280;2305;50.118;8.952;2023-02-22T00:55:59;100530.66;;;6.15;100.00
4586;BME280;2305;50.118;8.952;2023-02-22T00:58:28;100534.13;;;6.16;100.00
4586;BME280;2305;50.118;8.952;2023-02-22T01:00:59;100524.69;;;6.13;100.00
4586;BME280;2305;50.118;8.952;2023-02-22T01:03:28;100525.72;;;6.11;100.00
4586;BME280;2305;50.118;8.952;2023-02-22T01:05:57;100527.66;;;6.07;100.00
4586;BME280;2305;50.118;8.952;2023-02-22T01:08:27;100528.75;;;6.03;100.00
4586;BME280;2305;50.118;8.952;2023-02-22T01:10:56;100517.47;;;6.03;100.00
4586;BME280;2305;50.118;8.952;2023-02-22T01:13:27;100514.94;;;6.01;100.00
4586;BME280;2305;50.118;8.952;2023-02-22T01:15:55;100517.66;;;6.00;100.00
4586;BME280;2305;50.118;8.952;2023-02-22T01:18:23;100509.16;;;5.96;100.00
4586;BME280;2305;50.118;8.952;2023-02-22T01:20:54;100508.31;;;5.96;100.00
4586;BME280;2305;50.118;8.952;2023-02-22T01:23:23;100504.09;;;5.93;100.00
4586;BME280;2305;50.118;8.952;2023-02-22T01:25:52;100511.38;;;5.88;100.00
4586;BME280;2305;50.118;8.952;2023-02-22T01:28:20;100508.09;;;5.85;100.00
4586;BME280;2305;50.118;8.952;2023-02-22T01:30:49;100504.00;;;5.81;100.00
4586;BME280;2305;50.118;8.952;2023-02-22T01:33:17;100504.00;;;5.81;100.00
4586;BME280;2305;50.118;8.952;2023-02-22T01:35:45;100505.81;;;5.79;100.00
4586;BME280;2305;50.118;8.952;2023-02-22T01:38:14;100506.75;;;5.78;100.00
4586;BME280;2305;50.118;8.952;2023-02-22T01:40:45;100500.97;;;5.73;100.00
4586;BME280;2305;50.118;8.952;2023-02-22T01:43:19;100501.13;;;5.70;100.00
4586;BME280;2305;50.118;8.952;2023-02-22T01:45:57;100506.19;;;5.73;100.00
4586;BME280;2305;50.118;8.952;2023-02-22T01:48:33;100504.34;;;5.75;100.00
4586;BME280;2305;50.118;8.952;2023-02-22T01:51:07;100494.16;;;5.70;100.00
4586;BME280;2305;50.118;8.952;2023-02-22T01:53:42;100495.16;;;5.68;100.00
4586;BME280;2305;50.118;8.952;2023-02-22T01:56:13;100490.22;;;5.63;100.00
4586;BME280;2305;50.118;8.952;2023-02-22T01:58:45;100486.19;;;5.58;100.00
4586;BME280;2305;50.118;8.952;2023-02-22T02:01:18;100482.91;;;5.54;100.00
4586;BME280;2305;50.118;8.952;2023-02-22T02:03:49;100481.22;;;5.53;100.00
4586;BME280;2305;50.118;8.952;2023-02-22T02:06:19;100475.25;;;5.51;100.00
4586;BME280;2305;50.118;8.952;2023-02-22T02:08:55;100488.38;;;5.50;100.00
4586;BME280;2305;50.118;8.952;2023-02-22T02:11:28;100477.94;;;5.50;100.00
4586;BME280;2305;50.118;8.952;2023-02-22T02:14:00;100475.50;;;5.47;100.00
4586;BME280;2305;50.118;8.952;2023-02-22T02:16:34;100473.16;;;5.42;100.00
4586;BME280;2305;50.118;8.952;2023-02-22T02:19:09;100470.38;;;5.45;100.00
4586;BME280;2305;50.118;8.952;2023-02-22T02:22:04;100467.09;;;5.42;100.00
4586;BME280;2305;50.118;8.952;2023-02-22T02:28:01;100465.88;;;5.33;100.00
4586;BME280;2305;50.118;8.952;2023-02-22T02:33:57;100460.47;;;5.36;100.00
4586;BME280;2305;50.118;8.952;2023-02-22T02:36:30;100456.16;;;5.35;100.00
4586;BME280;2305;50.118;8.952;2023-02-22T02:39:05;100450.22;;;5.33;100.00
4586;BME280;2305;50.118;8.952;2023-02-22T02:41:41;100457.94;;;5.35;100.00
4586;BME280;2305;50.118;8.952;2023-02-22T02:44:16;100444.31;;;5.30;100.00
4586;BME280;2305;50.118;8.952;2023-02-22T02:46:54;100440.84;;;5.29;100.00
4586;BME280;2305;50.118;8.952;2023-02-22T02:49:28;100439.44;;;5.24;100.00
4586;BME280;2305;50.118;8.952;2023-02-22T02:51:59;100442.22;;;5.21;100.00
4586;BME280;2305;50.118;8.952;2023-02-22T02:54:29;100436.88;;;5.08;100.00
4586;BME280;2305;50.118;8.952;2023-02-22T02:56:58;100440.47;;;5.06;100.00
4586;BME280;2305;50.118;8.952;2023-02-22T02:59:29;100435.09;;;5.09;100.00
4586;BME280;2305;50.118;8.952;2023-02-22T03:02:09;100432.38;;;5.10;100.00
4586;BME280;2305;50.118;8.952;2023-02-22T03:04:58;100430.81;;;5.08;100.00
4586;BME280;2305;50.118;8.952;2023-02-22T03:07:43;100438.53;;;5.09;100.00
4586;BME280;2305;50.118;8.952;2023-02-22T03:10:25;100428.94;;;5.10;100.00
4586;BME280;2305;50.118;8.952;2023-02-22T03:13:00;100426.06;;;5.14;100.00
4586;BME280;2305;50.118;8.952;2023-02-22T03:15:36;100422.97;;;5.08;100.00
4586;BME280;2305;50.118;8.952;2023-02-22T03:18:15;100422.06;;;5.09;100.00
4586;BME280;2305;50.118;8.952;2023-02-22T03:20:55;100416.72;;;5.10;100.00
4586;BME280;2305;50.118;8.952;2023-02-22T03:23:31;100422.88;;;5.09;100.00
4586;BME280;2305;50.118;8.952;2023-02-22T03:26:04;100413.44;;;5.07;100.00
4586;BME280;2305;50.118;8.952;2023-02-22T03:28:37;100421.28;;;5.07;100.00
4586;BME280;2305;50.118;8.952;2023-02-22T03:31:11;100419.53;;;5.07;100.00
4586;BME280;2305;50.118;8.952;2023-02-22T03:33:45;100416.91;;;5.07;100.00
4586;BME280;2305;50.118;8.952;2023-02-22T03:36:19;100417.84;;;5.06;100.00
4586;BME280;2305;50.118;8.952;2023-02-22T03:38:54;100415.22;;;5.06;100.00
4586;BME280;2305;50.118;8.952;2023-02-22T03:41:25;100409.50;;;5.00;100.00
4586;BME280;2305;50.118;8.952;2023-02-22T03:43:58;100414.66;;;5.01;100.00
4586;BME280;2305;50.118;8.952;2023-02-22T03:46:29;100409.94;;;5.08;100.00
4586;BME280;2305;50.118;8.952;2023-02-22T03:49:03;100416.72;;;5.10;100.00
4586;BME280;2305;50.118;8.952;2023-02-22T03:51:39;100411.41;;;5.12;100.00
4586;BME280;2305;50.118;8.952;2023-02-22T03:54:08;100411.69;;;5.07;100.00
4586;BME280;2305;50.118;8.952;2023-02-22T03:56:49;100404.78;;;5.06;100.00
4586;BME280;2305;50.118;8.952;2023-02-22T03:59:21;100410.00;;;5.06;100.00
4586;BME280;2305;50.118;8.952;2023-02-22T04:01:51;100410.16;;;5.03;100.00
4586;BME280;2305;50.118;8.952;2023-02-22T04:04:19;100407.56;;;5.03;100.00
4586;BME280;2305;50.118;8.952;2023-02-22T04:06:52;100407.75;;;5.00;100.00
4586;BME280;2305;50.118;8.952;2023-02-22T04:09:20;100407.34;;;4.92;100.00
4586;BME280;2305;50.118;8.952;2023-02-22T04:11:48;100410.88;;;4.91;100.00
4586;BME280;2305;50.118;8.952;2023-02-22T04:14:16;100401.53;;;4.87;100.00
4586;BME280;2305;50.118;8.952;2023-02-22T04:16:47;100400.44;;;4.91;100.00
4586;BME280;2305;50.118;8.952;2023-02-22T04:19:16;100398.09;;;4.87;100.00
4586;BME280;2305;50.118;8.952;2023-02-22T04:21:44;100398.25;;;4.84;100.00
4586;BME280;2305;50.118;8.952;2023-02-22T04:24:20;100393.13;;;4.82;100.00
4586;BME280;2305;50.118;8.952;2023-02-22T04:26:49;100397.53;;;4.82;100.00
4586;BME280;2305;50.118;8.952;2023-02-22T04:29:20;100392.22;;;4.83;100.00
4586;BME280;2305;50.118;8.952;2023-02-22T04:31:50;100398.59;;;4.78;100.00
4586;BME280;2305;50.118;8.952;2023-02-22T04:34:18;100395.00;;;4.80;100.00
4586;BME280;2305;50.118;8.952;2023-02-22T04:36:47;100395.91;;;4.79;100.00
4586;BME280;2305;50.118;8.952;2023-02-22T04:39:16;100386.50;;;4.77;100.00
4586;BME280;2305;50.118;8.952;2023-02-22T04:41:46;100392.97;;;4.70;100.00
4586;BME280;2305;50.118;8.952;2023-02-22T04:44:14;100386.00;;;4.70;100.00
4586;BME280;2305;50.118;8.952;2023-02-22T04:46:42;100386.84;;;4.71;100.00
4586;BME280;2305;50.118;8.952;2023-02-22T04:49:13;100382.53;;;4.70;100.00
4586;BME280;2305;50.118;8.952;2023-02-22T04:51:43;100385.34;;;4.67;100.00
4586;BME280;2305;50.118;8.952;2023-02-22T04:54:11;100383.66;;;4.66;100.00
4586;BME280;2305;50.118;8.952;2023-02-22T04:56:45;100383.56;;;4.67;100.00
4586;BME280;2305;50.118;8.952;2023-02-22T04:59:16;100386.28;;;4.66;100.00
4586;BME280;2305;50.118;8.952;2023-02-22T05:01:51;100378.69;;;4.61;100.00
4586;BME280;2305;50.118;8.952;2023-02-22T05:04:20;100380.72;;;4.56;100.00
4586;BME280;2305;50.118;8.952;2023-02-22T05:06:49;100375.59;;;4.55;100.00
4586;BME280;2305;50.118;8.952;2023-02-22T05:09:20;100378.53;;;4.49;100.00
4586;BME280;2305;50.118;8.952;2023-02-22T05:11:52;100378.88;;;4.43;100.00
4586;BME280;2305;50.118;8.952;2023-02-22T05:14:20;100380.81;;;4.39;100.00
4586;BME280;2305;50.118;8.952;2023-02-22T05:16:53;100380.13;;;4.36;100.00
4586;BME280;2305;50.118;8.952;2023-02-22T05:19:22;100382.75;;;4.36;100.00
4586;BME280;2305;50.118;8.952;2023-02-22T05:21:50;100386.22;;;4.36;100.00
4586;BME280;2305;50.118;8.952;2023-02-22T05:24:18;100385.34;;;4.36;100.00
4586;BME280;2305;50.118;8.952;2023-02-22T05:26:47;100375.78;;;4.36;100.00
4586;BME280;2305;50.118;8.952;2023-02-22T05:29:18;100381.06;;;4.35;100.00
4586;BME280;2305;50.118;8.952;2023-02-22T05:31:49;100377.78;;;4.31;100.00
4586;BME280;2305;50.118;8.952;2023-02-22T05:34:17;100380.31;;;4.33;100.00
4586;BME280;2305;50.118;8.952;2023-02-22T05:36:45;100379.22;;;4.37;100.00
4586;BME280;2305;50.118;8.952;2023-02-22T05:39:13;100384.44;;;4.37;100.00
4586;BME280;2305;50.118;8.952;2023-02-22T05:41:41;100376.63;;;4.37;100.00
4586;BME280;2305;50.118;8.952;2023-02-22T05:44:09;100375.78;;;4.36;100.00
4586;BME280;2305;50.118;8.952;2023-02-22T05:46:39;100380.31;;;4.33;100.00
4586;BME280;2305;50.118;8.952;2023-02-22T05:49:07;100375.19;;;4.31;100.00
4586;BME280;2305;50.118;8.952;2023-02-22T05:51:35;100370.97;;;4.29;100.00
4586;BME280;2305;50.118;8.952;2023-02-22T05:54:03;100376.28;;;4.28;100.00
4586;BME280;2305;50.118;8.952;2023-02-22T05:56:31;100378.03;;;4.27;100.00
4586;BME280;2305;50.118;8.952;2023-02-22T05:58:59;100375.75;;;4.21;100.00
4586;BME280;2305;50.118;8.952;2023-02-22T06:01:31;100370.66;;;4.20;100.00
4586;BME280;2305;50.118;8.952;2023-02-22T06:04:00;100376.78;;;4.18;100.00
4586;BME280;2305;50.118;8.952;2023-02-22T06:06:28;100373.09;;;4.22;100.00
4586;BME280;2305;50.118;8.952;2023-02-22T06:08:56;100373.75;;;4.26;100.00
4586;BME280;2305;50.118;8.952;2023-02-22T06:11:27;100372.81;;;4.27;100.00
4586;BME280;2305;50.118;8.952;2023-02-22T06:13:56;100377.09;;;4.28;100.00
4586;BME280;2305;50.118;8.952;2023-02-22T06:16:24;100373.56;;;4.29;100.00
4586;BME280;2305;50.118;8.952;2023-02-22T06:18:52;100374.28;;;4.17;100.00
4586;BME280;2305;50.118;8.952;2023-02-22T06:21:22;100376.09;;;4.15;100.00
4586;BME280;2305;50.118;8.952;2023-02-22T06:23:50;100376.09;;;4.15;100.00
4586;BME280;2305;50.118;8.952;2023-02-22T06:26:18;100377.13;;;4.13;100.00
4586;BME280;2305;50.118;8.952;2023-02-22T06:28:46;100382.16;;;4.16;100.00
4586;BME280;2305;50.118;8.952;2023-02-22T06:31:17;100378.63;;;4.17;100.00
4586;BME280;2305;50.118;8.952;2023-02-22T06:33:46;100391.41;;;4.21;100.00
4586;BME280;2305;50.118;8.952;2023-02-22T06:36:14;100389.59;;;4.23;100.00
4586;BME280;2305;50.118;8.952;2023-02-22T06:38:43;100393.88;;;4.24;100.00
4586;BME280;2305;50.118;8.952;2023-02-22T06:41:14;100390.34;;;4.25;100.00
4586;BME280;2305;50.118;8.952;2023-02-22T06:43:42;100397.22;;;4.26;100.00
4586;BME280;2305;50.118;8.952;2023-02-22T06:46:11;100399.66;;;4.29;100.00
4586;BME280;2305;50.118;8.952;2023-02-22T06:48:39;100397.03;;;4.29;100.00
4586;BME280;2305;50.118;8.952;2023-02-22T06:51:08;100395.38;;;4.28;100.00
4586;BME280;2305;50.118;8.952;2023-02-22T06:53:36;100400.44;;;4.31;100.00
4586;BME280;2305;50.118;8.952;2023-02-22T06:56:07;100402.03;;;4.33;100.00
4586;BME280;2305;50.118;8.952;2023-02-22T06:58:35;100401.66;;;4.39;100.00
4586;BME280;2305;50.118;8.952;2023-02-22T07:01:04;100405.72;;;4.45;100.00
4586;BME280;2305;50.118;8.952;2023-02-22T07:03:34;100400.94;;;4.53;100.00
4586;BME280;2305;50.118;8.952;2023-02-22T07:06:03;100404.75;;;4.61;100.00
4586;BME280;2305;50.118;8.952;2023-02-22T07:08:31;100400.06;;;4.68;100.00
4586;BME280;2305;50.118;8.952;2023-02-22T07:11:02;100401.13;;;4.79;100.00
4586;BME280;2305;50.118;8.952;2023-02-22T07:13:32;100406.16;;;4.82;100.00
4586;BME280;2305;50.118;8.952;2023-02-22T07:16:05;100402.81;;;4.80;100.00
4586;BME280;2305;50.118;8.952;2023-02-22T07:18:36;100399.94;;;4.85;100.00
4586;BME280;2305;50.118;8.952;2023-02-22T07:21:04;100403.31;;;4.87;100.00
4586;BME280;2305;50.118;8.952;2023-02-22T07:23:34;100401.47;;;4.89;100.00
4586;BME280;2305;50.118;8.952;2023-02-22T07:26:02;100396.63;;;4.97;100.00
4586;BME280;2305;50.118;8.952;2023-02-22T07:28:33;100397.03;;;5.05;100.00
4586;BME280;2305;50.118;8.952;2023-02-22T07:31:02;100396.94;;;5.06;100.00
4586;BME280;2305;50.118;8.952;2023-02-22T07:33:30;100402.75;;;5.11;100.00
4586;BME280;2305;50.118;8.952;2023-02-22T07:35:58;100400.03;;;5.13;100.00
4586;BME280;2305;50.118;8.952;2023-02-22T07:38:26;100403.97;;;5.20;100.00
4586;BME280;2305;50.118;8.952;2023-02-22T07:40:57;100408.09;;;5.24;100.00
4586;BME280;2305;50.118;8.952;2023-02-22T07:43:27;100399.25;;;5.26;100.00
4586;BME280;2305;50.118;8.952;2023-02-22T07:45:59;100412.97;;;5.30;100.00
4586;BME280;2305;50.118;8.952;2023-02-22T07:48:30;100412.22;;;5.42;100.00
4586;BME280;2305;50.118;8.952;2023-02-22T07:50:58;100410.84;;;5.50;100.00
4586;BME280;2305;50.118;8.952;2023-02-22T07:53:30;100416.72;;;5.54;100.00
4586;BME280;2305;50.118;8.952;2023-02-22T07:56:01;100415.06;;;5.53;100.00
4586;BME280;2305;50.118;8.952;2023-02-22T07:58:30;100409.84;;;5.53;100.00
4586;BME280;2305;50.118;8.952;2023-02-22T08:01:00;100420.75;;;5.59;100.00
4586;BME280;2305;50.118;8.952;2023-02-22T08:03:30;100420.00;;;5.57;100.00
4586;BME280;2305;50.118;8.952;2023-02-22T08:06:03;100424.22;;;5.60;100.00
4586;BME280;2305;50.118;8.952;2023-02-22T08:08:34;100425.53;;;5.67;100.00
4586;BME280;2305;50.118;8.952;2023-02-22T08:11:02;100416.84;;;5.66;100.00
4586;BME280;2305;50.118;8.952;2023-02-22T08:13:30;100425.81;;;5.76;100.00
4586;BME280;2305;50.118;8.952;2023-02-22T08:16:01;100419.66;;;5.77;100.00
4586;BME280;2305;50.118;8.952;2023-02-22T08:18:30;100417.38;;;5.87;100.00
4586;BME280;2305;50.118;8.952;2023-02-22T08:20:58;100421.94;;;5.97;100.00
4586;BME280;2305;50.118;8.952;2023-02-22T08:23:27;100417.53;;;5.98;100.00
4586;BME280;2305;50.118;8.952;2023-02-22T08:26:03;100423.50;;;6.00;100.00
4586;BME280;2305;50.118;8.952;2023-02-22T08:28:32;100420.81;;;6.01;100.00
4586;BME280;2305;50.118;8.952;2023-02-22T08:31:01;100419.50;;;6.08;100.00
4586;BME280;2305;50.118;8.952;2023-02-22T08:33:29;100426.69;;;6.19;100.00
4586;BME280;2305;50.118;8.952;2023-02-22T08:35:57;100424.25;;;6.30;100.00
4586;BME280;2305;50.118;8.952;2023-02-22T08:38:29;100423.75;;;6.37;100.00
4586;BME280;2305;50.118;8.952;2023-02-22T08:40:58;100426.63;;;6.47;100.00
4586;BME280;2305;50.118;8.952;2023-02-22T08:43:26;100423.44;;;6.56;100.00
4586;BME280;2305;50.118;8.952;2023-02-22T08:45:55;100418.97;;;6.58;100.00
4586;BME280;2305;50.118;8.952;2023-02-22T08:48:25;100423.59;;;6.67;100.00
4586;BME280;2305;50.118;8.952;2023-02-22T08:50:53;100412.44;;;6.77;100.00
4586;BME280;2305;50.118;8.952;2023-02-22T08:53:21;100417.94;;;6.87;100.00
4586;BME280;2305;50.118;8.952;2023-02-22T08:55:52;100412.28;;;6.93;100.00
4586;BME280;2305;50.118;8.952;2023-02-22T08:58:20;100419.53;;;7.02;100.00
4586;BME280;2305;50.118;8.952;2023-02-22T09:00:48;100418.94;;;7.11;100.00
4586;BME280;2305;50.118;8.952;2023-02-22T09:03:17;100414.97;;;7.18;100.00
4586;BME280;2305;50.118;8.952;2023-02-22T09:05:46;100415.38;;;7.24;100.00
4586;BME280;2305;50.118;8.952;2023-02-22T09:08:15;100410.78;;;7.28;100.00
4586;BME280;2305;50.118;8.952;2023-02-22T09:10:43;100411.78;;;7.39;100.00
4586;BME280;2305;50.118;8.952;2023-02-22T09:13:12;100409.16;;;7.52;100.00
4586;BME280;2305;50.118;8.952;2023-02-22T09:15:40;100409.25;;;7.63;100.00
4586;BME280;2305;50.118;8.952;2023-02-22T09:18:13;100404.84;;;7.63;100.00
4586;BME280;2305;50.118;8.952;2023-02-22T09:20:43;100406.75;;;7.74;100.00
4586;BME280;2305;50.118;8.952;2023-02-22T09:23:13;100405.38;;;7.81;100.00
4586;BME280;2305;50.118;8.952;2023-02-22T09:25:41;100394.16;;;7.91;100.00
4586;BME280;2305;50.118;8.952;2023-02-22T09:28:09;100393.59;;;7.99;100.00
4586;BME280;2305;50.118;8.952;2023-02-22T09:30:42;100391.78;;;8.12;100.00
4586;BME280;2305;50.118;8.952;2023-02-22T09:33:15;100393.03;;;8.19;100.00
4586;BME280;2305;50.118;8.952;2023-02-22T09:35:45;100396.31;;;8.22;100.00
4586;BME280;2305;50.118;8.952;2023-02-22T09:38:20;100384.34;;;8.31;100.00
4586;BME280;2305;50.118;8.952;2023-02-22T09:40:53;100384.72;;;8.37;100.00
4586;BME280;2305;50.118;8.952;2023-02-22T09:43:32;100380.22;;;8.39;100.00
4586;BME280;2305;50.118;8.952;2023-02-22T09:46:09;100379.91;;;8.44;100.00
4586;BME280;2305;50.118;8.952;2023-02-22T09:48:54;100381.84;;;8.53;100.00
4586;BME280;2305;50.118;8.952;2023-02-22T09:51:28;100374.97;;;8.63;100.00
4586;BME280;2305;50.118;8.952;2023-02-22T09:54:00;100377.72;;;8.61;100.00
4586;BME280;2305;50.118;8.952;2023-02-22T09:56:31;100373.97;;;8.53;100.00
4586;BME280;2305;50.118;8.952;2023-02-22T09:59:06;100371.56;;;8.73;100.00
4586;BME280;2305;50.118;8.952;2023-02-22T10:01:40;100372.78;;;8.80;100.00
4586;BME280;2305;50.118;8.952;2023-02-22T10:04:14;100383.00;;;8.95;100.00
4586;BME280;2305;50.118;8.952;2023-02-22T10:07:03;100370.41;;;9.11;100.00
4586;BME280;2305;50.118;8.952;2023-02-22T10:09:39;100370.06;;;9.16;100.00
4586;BME280;2305;50.118;8.952;2023-02-22T10:12:12;100365.56;;;9.18;100.00
4586;BME280;2305;50.118;8.952;2023-02-22T10:14:54;100370.22;;;9.25;100.00
4586;BME280;2305;50.118;8.952;2023-02-22T10:17:32;100366.63;;;9.26;100.00
4586;BME280;2305;50.118;8.952;2023-02-22T10:20:20;100371.06;;;9.37;100.00
4586;BME280;2305;50.118;8.952;2023-02-22T10:23:01;100363.94;;;9.50;100.00
4586;BME280;2305;50.118;8.952;2023-02-22T10:25:35;100359.66;;;9.71;100.00
4586;BME280;2305;50.118;8.952;2023-02-22T10:28:10;100365.53;;;9.85;100.00
4586;BME280;2305;50.118;8.952;2023-02-22T10:30:42;100361.00;;;9.98;100.00
4586;BME280;2305;50.118;8.952;2023-02-22T10:33:19;100359.06;;;10.11;100.00
4586;BME280;2305;50.118;8.952;2023-02-22T10:35:50;100354.88;;;10.20;100.00
4586;BME280;2305;50.118;8.952;2023-02-22T10:38:20;100346.34;;;10.38;100.00
4586;BME280;2305;50.118;8.952;2023-02-22T10:40:54;100349.69;;;10.40;100.00
4586;BME280;2305;50.118;8.952;2023-02-22T10:43:24;100347.25;;;10.59;100.00
4586;BME280;2305;50.118;8.952;2023-02-22T10:45:57;100351.16;;;10.76;100.00
4586;BME280;2305;50.118;8.952;2023-02-22T10:48:30;100345.47;;;10.91;100.00
4586;BME280;2305;50.118;8.952;2023-02-22T10:51:04;100344.81;;;10.99;100.00
4586;BME280;2305;50.118;8.952;2023-02-22T10:53:34;100341.19;;;11.11;100.00
4586;BME280;2305;50.118;8.952;2023-02-22T10:56:11;100339.03;;;11.25;100.00
4586;BME280;2305;50.118;8.952;2023-02-22T10:58:49;100338.72;;;11.39;100.00
4586;BME280;2305;50.118;8.952;2023-02-22T11:01:27;100345.19;;;11.56;100.00
4586;BME280;2305;50.118;8.952;2023-02-22T11:04:09;100340.31;;;11.72;100.00
4586;BME280;2305;50.118;8.952;2023-02-22T11:06:42;100333.97;;;11.84;100.00
4586;BME280;2305;50.118;8.952;2023-02-22T11:09:13;100331.50;;;11.92;100.00
4586;BME280;2305;50.118;8.952;2023-02-22T11:11:47;100330.16;;;11.97;100.00
4586;BME280;2305;50.118;8.952;2023-02-22T11:14:24;100330.81;;;11.90;100.00
4586;BME280;2305;50.118;8.952;2023-02-22T11:16:55;100328.91;;;12.01;100.00
4586;BME280;2305;50.118;8.952;2023-02-22T11:19:29;100322.00;;;12.10;100.00
4586;BME280;2305;50.118;8.952;2023-02-22T11:22:09;100325.38;;;12.21;100.00
4586;BME280;2305;50.118;8.952;2023-02-22T11:24:44;100320.53;;;12.26;100.00
4586;BME280;2305;50.118;8.952;2023-02-22T11:27:29;100310.78;;;12.27;100.00
4586;BME280;2305;50.118;8.952;2023-02-22T11:30:18;100300.75;;;12.30;100.00
4586;BME280;2305;50.118;8.952;2023-02-22T11:32:51;100302.44;;;12.31;100.00
4586;BME280;2305;50.118;8.952;2023-02-22T11:35:38;100294.41;;;12.42;100.00
4586;BME280;2305;50.118;8.952;2023-02-22T11:38:18;100287.28;;;12.43;100.00
4586;BME280;2305;50.118;8.952;2023-02-22T11:41:05;100283.81;;;12.42;100.00
4586;BME280;2305;50.118;8.952;2023-02-22T11:43:36;100284.94;;;12.49;100.00
4586;BME280;2305;50.118;8.952;2023-02-22T11:46:06;100281.31;;;12.50;100.00
4586;BME280;2305;50.118;8.952;2023-02-22T11:48:40;100279.38;;;12.62;100.00
4586;BME280;2305;50.118;8.952;2023-02-22T11:51:25;100278.41;;;12.72;100.00
4586;BME280;2305;50.118;8.952;2023-02-22T11:57:03;100275.38;;;12.96;100.00
4586;BME280;2305;50.118;8.952;2023-02-22T11:59:44;100269.63;;;13.10;100.00
4586;BME280;2305;50.118;8.952;2023-02-22T12:02:30;100261.22;;;13.33;100.00
4586;BME280;2305;50.118;8.952;2023-02-22T12:05:29;100263.41;;;13.47;100.00
4586;BME280;2305;50.118;8.952;2023-02-22T12:08:15;100251.41;;;13.53;100.00
4586;BME280;2305;50.118;8.952;2023-02-22T12:10:55;100260.00;;;13.64;100.00
4586;BME280;2305;50.118;8.952;2023-02-22T12:13:36;100253.72;;;13.65;100.00
4586;BME280;2305;50.118;8.952;2023-02-22T12:16:17;100249.63;;;13.70;100.00
4586;BME280;2305;50.118;8.952;2023-02-22T12:19:01;100240.63;;;13.90;100.00
4586;BME280;2305;50.118;8.952;2023-02-22T12:21:38;100233.28;;;14.02;100.00
4586;BME280;2305;50.118;8.952;2023-02-22T12:24:11;100244.22;;;14.16;100.00
4586;BME280;2305;50.118;8.952;2023-02-22T12:26:45;100240.13;;;14.04;100.00
4586;BME280;2305;50.118;8.952;2023-02-22T12:29:23;100242.81;;;14.22;100.00
4586;BME280;2305;50.118;8.952;2023-02-22T12:31:58;100238.53;;;14.38;100.00
4586;BME280;2305;50.118;8.952;2023-02-22T12:34:34;100235.72;;;14.57;100.00
4586;BME280;2305;50.118;8.952;2023-02-22T12:37:11;100234.66;;;14.50;100.00
4586;BME280;2305;50.118;8.952;2023-02-22T12:39:50;100236.19;;;14.70;100.00
4586;BME280;2305;50.118;8.952;2023-02-22T12:42:25;100234.63;;;14.85;100.00
4586;BME280;2305;50.118;8.952;2023-02-22T12:45:01;100229.06;;;14.96;100.00
4586;BME280;2305;50.118;8.952;2023-02-22T12:47:44;100230.63;;;15.07;100.00
4586;BME280;2305;50.118;8.952;2023-02-22T12:50:18;100226.75;;;15.19;100.00
4586;BME280;2305;50.118;8.952;2023-02-22T12:52:52;100229.97;;;15.30;100.00
4586;BME280;2305;50.118;8.952;2023-02-22T12:55:25;100236.84;;;15.41;100.00
4586;BME280;2305;50.118;8.952;2023-02-22T12:57:58;100220.13;;;15.48;100.00
4586;BME280;2305;50.118;8.952;2023-02-22T13:00:35;100225.16;;;15.59;100.00
4586;BME280;2305;50.118;8.952;2023-02-22T13:03:24;100219.41;;;15.72;100.00
4586;BME280;2305;50.118;8.952;2023-02-22T13:06:00;100216.09;;;15.78;100.00
4586;BME280;2305;50.118;8.952;2023-02-22T13:08:36;100215.44;;;15.76;100.00
4586;BME280;2305;50.118;8.952;2023-02-22T13:11:13;100202.13;;;15.68;100.00
4586;BME280;2305;50.118;8.952;2023-02-22T13:13:59;100209.41;;;15.66;100.00
4586;BME280;2305;50.118;8.952;2023-02-22T13:16:39;100198.59;;;15.59;100.00
4586;BME280;2305;50.118;8.952;2023-02-22T13:19:19;100202.75;;;15.62;100.00
4586;BME280;2305;50.118;8.952;2023-02-22T13:21:56;100200.22;;;15.52;100.00
4586;BME280;2305;50.118;8.952;2023-02-22T13:24:31;100204.28;;;15.64;100.00
4586;BME280;2305;50.118;8.952;2023-02-22T13:27:11;100197.63;;;15.68;100.00
4586;BME280;2305;50.118;8.952;2023-02-22T13:29:46;100193.84;;;15.79;100.00
4586;BME280;2305;50.118;8.952;2023-02-22T13:32:24;100181.59;;;15.94;100.00
4586;BME280;2305;50.118;8.952;2023-02-22T13:35:30;100180.16;;;16.07;100.00
4586;BME280;2305;50.118;8.952;2023-02-22T13:38:21;100182.84;;;16.31;100.00
4586;BME280;2305;50.118;8.952;2023-02-22T13:41:21;100171.41;;;16.39;100.00
4586;BME280;2305;50.118;8.952;2023-02-22T13:44:20;100176.72;;;16.79;100.00
4586;BME280;2305;50.118;8.952;2023-02-22T13:47:16;100168.81;;;17.17;100.00